createdAt,value
2023-01-22T00:04:59.580Z,-0.36
2023-01-22T00:10:04.445Z,-0.34
2023-01-22T00:15:11.122Z,-0.13
2023-01-22T00:20:15.005Z,-0.21
2023-01-22T00:25:19.597Z,-0.35
2023-01-22T00:30:22.875Z,0.01
2023-01-22T00:35:27.742Z,-0.24
2023-01-22T00:40:32.399Z,-0.03
2023-01-22T00:45:35.553Z,0.02
2023-01-22T00:50:39.276Z,-0.10
2023-01-22T00:55:51.832Z,-0.08
2023-01-22T01:00:56.357Z,-0.13
2023-01-22T01:06:02.488Z,-0.15
2023-01-22T01:11:09.916Z,-0.26
2023-01-22T01:16:15.792Z,-0.22
2023-01-22T01:21:19.968Z,-0.30
2023-01-22T01:26:24.826Z,-0.21
2023-01-22T01:31:28.024Z,-0.17
2023-01-22T01:36:48.390Z,-0.43
2023-01-22T01:41:53.938Z,-0.29
2023-01-22T01:47:01.408Z,-0.27
2023-01-22T01:52:09.744Z,-0.29
2023-01-22T01:57:19.431Z,-0.48
2023-01-22T02:02:23.337Z,-0.51
2023-01-22T02:07:26.354Z,-0.34
2023-01-22T02:12:31.272Z,-0.13
2023-01-22T02:17:34.455Z,-0.44
2023-01-22T02:22:39.904Z,-0.27
2023-01-22T02:27:42.964Z,-0.42
2023-01-22T02:32:46.209Z,0.00
2023-01-22T02:37:51.486Z,-0.32
2023-01-22T02:42:54.766Z,-0.52
2023-01-22T02:47:57.913Z,-0.30
2023-01-22T02:53:02.415Z,-0.35
2023-01-22T02:58:05.625Z,-0.26
2023-01-22T03:03:15.545Z,-0.45
2023-01-22T03:08:21.521Z,-0.30
2023-01-22T03:13:42.009Z,-0.55
2023-01-22T03:19:02.740Z,-0.37
2023-01-22T03:24:07.828Z,-0.43
2023-01-22T03:29:11.097Z,-0.55
2023-01-22T03:34:14.415Z,-0.34
2023-01-22T03:39:19.319Z,-0.34
2023-01-22T03:44:22.564Z,-0.39
2023-01-22T03:49:25.867Z,-0.40
2023-01-22T03:54:31.419Z,-0.15
2023-01-22T03:59:37.171Z,-0.28
2023-01-22T04:04:40.308Z,-0.05
2023-01-22T04:09:45.697Z,-0.21
2023-01-22T04:14:49.480Z,-0.12
2023-01-22T04:19:52.594Z,-0.11
2023-01-22T04:25:16.095Z,-0.12
2023-01-22T04:30:20.803Z,-0.11
2023-01-22T04:35:29.217Z,-0.08
2023-01-22T04:40:36.018Z,-0.16
2023-01-22T04:45:39.095Z,-0.16
2023-01-22T04:50:42.397Z,-0.16
2023-01-22T04:55:49.274Z,-0.15
2023-01-22T05:00:52.714Z,-0.45
2023-01-22T05:05:56.120Z,-0.30
2023-01-22T05:11:03.013Z,-0.16
2023-01-22T05:16:13.913Z,-0.13
2023-01-22T05:21:17.084Z,-0.21
2023-01-22T05:26:22.084Z,-0.18
2023-01-22T05:31:32.111Z,-0.09
2023-01-22T05:36:37.636Z,-0.25
2023-01-22T05:41:48.899Z,-0.21
2023-01-22T05:46:52.584Z,-0.20
2023-01-22T05:52:16.264Z,-0.22
2023-01-22T05:57:22.309Z,-0.29
2023-01-22T06:02:26.183Z,-0.15
2023-01-22T06:07:31.594Z,-0.08
2023-01-22T06:12:36.769Z,0.07
2023-01-22T06:17:40.081Z,-0.22
2023-01-22T06:22:43.293Z,-0.05
2023-01-22T06:27:48.561Z,-0.12
2023-01-22T06:32:53.714Z,-0.34
2023-01-22T06:37:57.703Z,-0.51
2023-01-22T06:43:05.246Z,-0.21
2023-01-22T06:48:08.893Z,-0.14
2023-01-22T06:53:12.168Z,-0.22
2023-01-22T06:58:16.985Z,-0.03
2023-01-22T07:03:20.422Z,-0.17
2023-01-22T07:08:23.522Z,-0.07
2023-01-22T07:13:27.980Z,-0.08
2023-01-22T07:18:31.231Z,-0.19
2023-01-22T07:23:34.593Z,-0.15
2023-01-22T07:28:41.035Z,-0.12
2023-01-22T07:33:44.548Z,-0.14
2023-01-22T07:38:47.607Z,0.03
2023-01-22T07:43:53.317Z,-0.07
2023-01-22T07:48:56.660Z,0.06
2023-01-22T07:54:01.928Z,0.04
2023-01-22T07:59:06.814Z,-0.14
2023-01-22T08:04:10.115Z,0.19
2023-01-22T08:09:13.224Z,0.10
2023-01-22T08:14:17.671Z,0.19
2023-01-22T08:19:20.868Z,0.44
2023-01-22T08:24:24.517Z,0.49
2023-01-22T08:29:29.587Z,0.73
2023-01-22T08:34:33.523Z,0.64
2023-01-22T08:39:37.540Z,0.44
2023-01-22T08:44:42.870Z,0.50
2023-01-22T08:49:45.964Z,0.36
2023-01-22T08:54:49.081Z,0.19
2023-01-22T09:00:01.050Z,0.13
2023-01-22T09:05:04.671Z,0.24
2023-01-22T09:10:12.238Z,0.16
2023-01-22T09:15:16.789Z,0.13
2023-01-22T09:20:20.408Z,0.22
2023-01-22T09:25:23.753Z,0.19
2023-01-22T09:30:30.363Z,0.08
2023-01-22T09:35:33.649Z,0.37
2023-01-22T09:40:44.296Z,0.36
2023-01-22T09:45:53.559Z,0.12
2023-01-22T09:50:56.963Z,0.53
2023-01-22T09:56:01.022Z,0.46
2023-01-22T10:01:07.066Z,0.38
2023-01-22T10:06:13.981Z,0.24
2023-01-22T10:11:17.535Z,0.24
2023-01-22T10:16:22.226Z,0.56
2023-01-22T10:21:27.424Z,0.49
2023-01-22T10:26:36.818Z,0.28
2023-01-22T10:31:48.107Z,0.23
2023-01-22T10:36:52.962Z,0.29
2023-01-22T10:42:03.226Z,0.53
2023-01-22T10:47:18.469Z,0.59
2023-01-22T10:52:24.660Z,0.47
2023-01-22T10:57:31.565Z,0.42
2023-01-22T11:02:37.217Z,0.41
2023-01-22T11:07:41.028Z,0.53
2023-01-22T11:12:47.685Z,0.29
2023-01-22T11:17:55.509Z,0.59
2023-01-22T11:23:13.230Z,0.51
2023-01-22T11:28:29.504Z,0.42
2023-01-22T11:33:56.499Z,0.51
2023-01-22T11:39:10.697Z,0.51
2023-01-22T11:44:46.622Z,0.44
2023-01-22T11:50:05.424Z,0.42
2023-01-22T11:55:42.715Z,0.60
2023-01-22T12:00:54.603Z,0.65
2023-01-22T12:06:12.954Z,0.74
2023-01-22T12:11:38.393Z,0.40
2023-01-22T12:16:50.693Z,0.70
2023-01-22T12:22:02.724Z,0.39
2023-01-22T12:27:12.455Z,0.10
2023-01-22T12:32:19.247Z,0.34
2023-01-22T12:37:29.054Z,0.42
2023-01-22T12:42:38.418Z,0.35
2023-01-22T12:47:51.644Z,0.42
2023-01-22T12:53:04.347Z,0.33
2023-01-22T12:58:22.739Z,0.29
2023-01-22T13:03:32.131Z,0.09
2023-01-22T13:08:45.614Z,0.05
2023-01-22T13:13:53.997Z,0.16
2023-01-22T13:19:00.764Z,0.32
2023-01-22T13:24:14.518Z,0.08
2023-01-22T13:29:21.342Z,0.29
2023-01-22T13:34:26.050Z,0.45
2023-01-22T13:39:32.745Z,0.36
2023-01-22T13:44:39.209Z,0.57
2023-01-22T13:49:44.306Z,0.59
2023-01-22T13:54:54.560Z,0.07
2023-01-22T13:59:59.659Z,0.23
2023-01-22T14:05:03.879Z,0.31
2023-01-22T14:10:16.756Z,0.13
2023-01-22T14:15:22.522Z,0.26
2023-01-22T14:20:25.732Z,0.20
2023-01-22T14:25:31.780Z,0.26
2023-01-22T14:30:35.632Z,0.08
2023-01-22T14:35:38.825Z,0.13
2023-01-22T14:40:43.693Z,-0.04
2023-01-22T14:45:47.935Z,-0.18
2023-01-22T14:50:52.005Z,-0.10
2023-01-22T14:55:56.669Z,0.13
2023-01-22T15:00:59.953Z,-0.12
2023-01-22T15:06:03.329Z,0.13
2023-01-22T15:11:08.234Z,0.07
2023-01-22T15:16:13.033Z,-0.22
2023-01-22T15:21:16.207Z,-0.29
2023-01-22T15:26:28.798Z,-0.22
2023-01-22T15:31:32.990Z,0.07
2023-01-22T15:36:39.512Z,-0.05
2023-01-22T15:41:44.695Z,0.00
2023-01-22T15:46:48.448Z,-0.12
2023-01-22T15:51:51.680Z,-0.19
2023-01-22T15:56:56.613Z,-0.08
2023-01-22T16:01:59.782Z,-0.05
2023-01-22T16:07:03.157Z,-0.02
2023-01-22T16:12:09.185Z,0.05
2023-01-22T16:17:14.683Z,-0.11
2023-01-22T16:22:17.946Z,-0.05
2023-01-22T16:27:22.663Z,-0.06
2023-01-22T16:32:25.951Z,0.18
2023-01-22T16:37:29.108Z,0.10
2023-01-22T16:42:34.240Z,-0.07
2023-01-22T16:47:37.385Z,-0.15
2023-01-22T16:52:42.380Z,-0.43
2023-01-22T16:57:46.884Z,-0.39
2023-01-22T17:02:50.070Z,-0.34
2023-01-22T17:07:53.374Z,-0.46
2023-01-22T17:12:58.364Z,-0.48
2023-01-22T17:18:01.574Z,-0.43
2023-01-22T17:23:04.616Z,-0.53
2023-01-22T17:28:09.311Z,-0.49
2023-01-22T17:38:19.268Z,-0.39
2023-01-22T17:43:24.842Z,-0.41
2023-01-22T17:48:28.037Z,-0.33
2023-01-22T17:53:31.256Z,-0.17
2023-01-22T17:58:35.805Z,-0.32
2023-01-22T18:03:39.273Z,-0.27
2023-01-22T18:08:42.846Z,-0.43
2023-01-22T18:13:47.872Z,-0.47
2023-01-22T18:18:52.664Z,-0.42
2023-01-22T18:23:56.120Z,-0.38
2023-01-22T18:29:00.991Z,-0.37
2023-01-22T18:34:06.147Z,-0.27
2023-01-22T18:39:12.088Z,-0.34
2023-01-22T18:44:19.543Z,-0.36
2023-01-22T18:49:23.348Z,-0.40
2023-01-22T18:54:26.396Z,-0.44
2023-01-22T18:59:31.026Z,-0.38
2023-01-22T19:04:34.193Z,-0.21
2023-01-22T19:09:37.388Z,-0.42
2023-01-22T19:14:42.023Z,-0.29
2023-01-22T19:19:45.214Z,-0.32
2023-01-22T19:24:49.087Z,-0.44
2023-01-22T19:29:55.143Z,-0.37
2023-01-22T19:34:58.945Z,-0.30
2023-01-22T19:40:02.260Z,-0.34
2023-01-22T19:45:08.858Z,-0.34
2023-01-22T19:50:12.737Z,-0.31
2023-01-22T19:55:15.791Z,-0.34
2023-01-22T20:00:21.270Z,-0.27
2023-01-22T20:05:24.393Z,-0.32
2023-01-22T20:10:27.836Z,-0.27
2023-01-22T20:15:32.845Z,-0.14
2023-01-22T20:20:36.634Z,-0.39
2023-01-22T20:25:39.825Z,-0.24
2023-01-22T20:30:45.056Z,-0.09
2023-01-22T20:35:48.123Z,-0.08
2023-01-22T20:40:51.236Z,-0.16
2023-01-22T20:46:03.902Z,-0.07
2023-01-22T20:51:15.283Z,-0.15
2023-01-22T20:56:22.601Z,-0.14
2023-01-22T21:01:28.468Z,-0.07
2023-01-22T21:06:35.432Z,-0.12
2023-01-22T21:11:40.348Z,-0.08
2023-01-22T21:16:45.742Z,0.02
2023-01-22T21:21:49.020Z,0.03
2023-01-22T21:26:52.260Z,-0.05
2023-01-22T21:31:56.965Z,0.29
2023-01-22T21:37:00.387Z,0.03
2023-01-22T21:42:21.047Z,0.08
2023-01-22T21:47:25.673Z,0.02
2023-01-22T21:52:29.057Z,0.11
2023-01-22T21:57:32.595Z,-0.20
2023-01-22T22:02:36.991Z,-0.02
2023-01-22T22:07:40.183Z,-0.14
2023-01-22T22:12:44.062Z,-0.02
2023-01-22T22:17:48.977Z,-0.08
2023-01-22T22:22:51.999Z,-0.05
2023-01-22T22:27:57.020Z,0.13
2023-01-22T22:33:01.531Z,0.15
2023-01-22T22:38:04.681Z,0.00
2023-01-22T22:43:07.801Z,0.20
2023-01-22T22:48:12.264Z,-0.02
2023-01-22T22:53:15.417Z,-0.10
2023-01-22T22:58:18.679Z,-0.03
2023-01-22T23:03:23.360Z,-0.02
2023-01-22T23:08:26.504Z,-0.24
2023-01-22T23:13:31.847Z,-0.22
2023-01-22T23:18:37.051Z,-0.26
2023-01-22T23:23:41.316Z,-0.11
2023-01-22T23:28:45.125Z,-0.28
2023-01-22T23:33:51.440Z,-0.26
2023-01-22T23:38:55.189Z,-0.09
2023-01-22T23:43:58.281Z,-0.18
2023-01-22T23:49:04.105Z,-0.09
2023-01-22T23:54:08.766Z,-0.22
2023-01-22T23:59:12.261Z,-0.06
